createdAt,value
2022-12-01T00:01:14.851Z,101606.50
2022-12-01T00:03:41.925Z,101616.78
2022-12-01T00:06:15.901Z,101614.13
2022-12-01T00:09:02.971Z,101608.56
2022-12-01T00:11:29.919Z,101611.25
2022-12-01T00:13:56.662Z,101605.13
2022-12-01T00:16:23.612Z,101605.88
2022-12-01T00:18:52.523Z,101610.78
2022-12-01T00:21:22.012Z,101601.31
2022-12-01T00:23:51.172Z,101606.69
2022-12-01T00:26:19.172Z,101598.97
2022-12-01T00:28:54.264Z,101592.84
2022-12-01T00:31:21.679Z,101603.28
2022-12-01T00:33:49.735Z,101599.78
2022-12-01T00:36:16.481Z,101601.34
2022-12-01T00:38:43.279Z,101600.94
2022-12-01T00:41:10.095Z,101607.94
2022-12-01T00:43:36.865Z,101610.19
2022-12-01T00:46:04.107Z,101604.44
2022-12-01T00:48:30.982Z,101606.31
2022-12-01T00:50:57.872Z,101606.91
2022-12-01T00:53:24.899Z,101605.25
2022-12-01T00:55:54.131Z,101609.72
2022-12-01T00:58:21.632Z,101603.78
2022-12-01T01:00:48.647Z,101609.25
2022-12-01T01:03:15.704Z,101614.47
2022-12-01T01:05:43.072Z,101611.47
2022-12-01T01:08:12.241Z,101613.72
2022-12-01T01:10:43.134Z,101616.81
2022-12-01T01:13:10.231Z,101619.34
2022-12-01T01:15:37.891Z,101620.84
2022-12-01T01:18:05.511Z,101609.94
2022-12-01T01:20:33.001Z,101622.28
2022-12-01T01:22:59.867Z,101615.75
2022-12-01T01:25:26.827Z,101616.94
2022-12-01T01:27:53.611Z,101614.59
2022-12-01T01:30:20.814Z,101613.72
2022-12-01T01:32:47.626Z,101619.56
2022-12-01T01:35:14.454Z,101599.59
2022-12-01T01:37:41.238Z,101613.63
2022-12-01T01:40:08.510Z,101614.09
2022-12-01T01:42:35.416Z,101615.34
2022-12-01T01:45:02.226Z,101618.09
2022-12-01T01:47:36.893Z,101621.81
2022-12-01T01:50:13.463Z,101619.09
2022-12-01T01:52:48.774Z,101621.41
2022-12-01T01:55:16.442Z,101617.22
2022-12-01T01:57:45.056Z,101618.38
2022-12-01T02:00:18.993Z,101616.66
2022-12-01T02:02:47.573Z,101622.50
2022-12-01T02:05:22.744Z,101616.16
2022-12-01T02:07:51.975Z,101607.00
2022-12-01T02:10:22.682Z,101610.13
2022-12-01T02:13:08.393Z,101608.84
2022-12-01T02:16:03.761Z,101614.97
2022-12-01T02:18:42.576Z,101618.22
2022-12-01T02:21:28.514Z,101612.84
2022-12-01T02:24:13.277Z,101604.75
2022-12-01T02:26:46.019Z,101604.34
2022-12-01T02:29:43.547Z,101605.91
2022-12-01T02:32:18.819Z,101611.88
2022-12-01T02:34:48.627Z,101602.38
2022-12-01T02:37:32.799Z,101599.06
2022-12-01T02:40:20.549Z,101595.75
2022-12-01T02:42:59.863Z,101586.81
2022-12-01T02:45:37.261Z,101588.94
2022-12-01T02:48:10.005Z,101591.47
2022-12-01T02:50:39.906Z,101593.06
2022-12-01T02:53:10.378Z,101584.78
2022-12-01T02:55:37.166Z,101585.78
2022-12-01T02:58:14.086Z,101581.00
2022-12-01T03:00:52.114Z,101575.22
2022-12-01T03:03:33.021Z,101577.09
2022-12-01T03:06:14.539Z,101587.25
2022-12-01T03:08:51.521Z,101590.13
2022-12-01T03:11:28.942Z,101587.31
2022-12-01T03:14:18.608Z,101591.97
2022-12-01T03:16:50.963Z,101582.47
2022-12-01T03:19:32.857Z,101588.41
2022-12-01T03:22:12.574Z,101584.78
2022-12-01T03:24:43.683Z,101578.47
2022-12-01T03:27:14.123Z,101585.66
2022-12-01T03:29:45.393Z,101589.38
2022-12-01T03:32:12.880Z,101594.25
2022-12-01T03:34:59.463Z,101585.56
2022-12-01T03:37:37.962Z,101594.00
2022-12-01T03:40:12.042Z,101584.81
2022-12-01T03:42:48.071Z,101598.78
2022-12-01T03:45:24.475Z,101598.13
2022-12-01T03:47:51.802Z,101595.31
2022-12-01T03:50:19.056Z,101588.41
2022-12-01T03:53:26.612Z,101591.13
2022-12-01T03:56:01.654Z,101589.31
2022-12-01T03:58:36.500Z,101588.91
2022-12-01T04:01:05.094Z,101588.47
2022-12-01T04:03:31.952Z,101581.34
2022-12-01T04:05:59.335Z,101593.47
2022-12-01T04:08:26.391Z,101585.19
2022-12-01T04:10:53.184Z,101587.66
2022-12-01T04:13:23.353Z,101580.16
2022-12-01T04:15:51.433Z,101584.88
2022-12-01T04:18:19.225Z,101584.28
2022-12-01T04:20:47.251Z,101578.88
2022-12-01T04:23:34.013Z,101581.13
2022-12-01T04:26:02.989Z,101586.19
2022-12-01T04:28:29.938Z,101585.13
2022-12-01T04:30:56.736Z,101581.22
2022-12-01T04:33:23.448Z,101582.56
2022-12-01T04:35:58.062Z,101583.47
2022-12-01T04:38:30.044Z,101573.50
2022-12-01T04:40:57.593Z,101579.69
2022-12-01T04:43:24.358Z,101581.47
2022-12-01T04:45:51.092Z,101582.13
2022-12-01T04:48:17.805Z,101575.63
2022-12-01T04:50:44.541Z,101578.13
2022-12-01T04:53:11.337Z,101582.50
2022-12-01T04:55:39.210Z,101578.25
2022-12-01T04:58:06.319Z,101568.78
2022-12-01T05:00:33.805Z,101571.03
2022-12-01T05:03:00.991Z,101578.88
2022-12-01T05:05:27.755Z,101578.59
2022-12-01T05:07:54.680Z,101578.44
2022-12-01T05:10:22.385Z,101581.88
2022-12-01T05:12:49.662Z,101573.91
2022-12-01T05:15:17.473Z,101580.41
2022-12-01T05:17:44.652Z,101580.34
2022-12-01T05:20:37.738Z,101585.34
2022-12-01T05:23:06.076Z,101580.16
2022-12-01T05:25:33.539Z,101581.94
2022-12-01T05:28:00.449Z,101580.66
2022-12-01T05:30:28.949Z,101585.25
2022-12-01T05:32:56.004Z,101585.41
2022-12-01T05:35:22.868Z,101581.00
2022-12-01T05:37:49.885Z,101578.94
2022-12-01T05:40:16.628Z,101582.16
2022-12-01T05:42:43.647Z,101590.63
2022-12-01T05:45:10.689Z,101583.56
2022-12-01T05:47:37.473Z,101584.81
2022-12-01T05:50:05.997Z,101587.47
2022-12-01T05:52:36.156Z,101586.06
2022-12-01T05:55:04.226Z,101586.59
2022-12-01T05:57:32.673Z,101593.31
2022-12-01T06:00:00.152Z,101592.06
2022-12-01T06:02:27.059Z,101590.72
2022-12-01T06:04:53.982Z,101593.88
2022-12-01T06:07:22.455Z,101601.00
2022-12-01T06:09:49.972Z,101579.69
2022-12-01T06:12:17.293Z,101584.34
2022-12-01T06:14:44.400Z,101592.31
2022-12-01T06:17:11.791Z,101595.72
2022-12-01T06:19:39.316Z,101602.78
2022-12-01T06:22:06.158Z,101609.03
2022-12-01T06:24:32.999Z,101602.34
2022-12-01T06:26:59.745Z,101609.75
2022-12-01T06:29:26.680Z,101606.72
2022-12-01T06:31:53.449Z,101602.34
2022-12-01T06:34:20.306Z,101602.50
2022-12-01T06:36:47.020Z,101602.44
2022-12-01T06:39:16.023Z,101599.81
2022-12-01T06:41:43.094Z,101605.06
2022-12-01T06:44:10.612Z,101601.75
2022-12-01T06:46:37.934Z,101595.88
2022-12-01T06:49:04.819Z,101603.72
2022-12-01T06:51:33.913Z,101602.09
2022-12-01T06:54:05.280Z,101604.28
2022-12-01T06:56:32.504Z,101600.44
2022-12-01T06:58:59.567Z,101607.56
2022-12-01T07:01:26.803Z,101607.84
2022-12-01T07:03:53.659Z,101613.69
2022-12-01T07:06:20.770Z,101618.59
2022-12-01T07:08:47.631Z,101613.72
2022-12-01T07:11:15.757Z,101623.72
2022-12-01T07:13:46.647Z,101619.16
2022-12-01T07:16:13.467Z,101625.88
2022-12-01T07:18:40.648Z,101627.41
2022-12-01T07:21:12.519Z,101629.34
2022-12-01T07:23:40.017Z,101636.34
2022-12-01T07:26:10.434Z,101629.94
2022-12-01T07:28:37.234Z,101630.53
2022-12-01T07:31:09.388Z,101637.38
2022-12-01T07:33:36.736Z,101635.63
2022-12-01T07:36:04.993Z,101635.34
2022-12-01T07:38:32.995Z,101634.19
2022-12-01T07:41:04.660Z,101637.59
2022-12-01T07:43:32.724Z,101638.06
2022-12-01T07:46:22.297Z,101636.09
2022-12-01T07:48:50.222Z,101635.78
2022-12-01T07:51:17.719Z,101643.28
2022-12-01T07:53:46.420Z,101649.78
2022-12-01T07:56:13.738Z,101642.50
2022-12-01T07:58:41.400Z,101651.94
2022-12-01T08:01:18.908Z,101644.97
2022-12-01T08:03:47.567Z,101649.53
2022-12-01T08:06:14.250Z,101647.91
2022-12-01T08:08:41.919Z,101646.97
2022-12-01T08:11:17.024Z,101638.16
2022-12-01T08:13:44.054Z,101650.84
2022-12-01T08:16:14.202Z,101647.59
2022-12-01T08:18:42.066Z,101647.97
2022-12-01T08:21:14.351Z,101655.03
2022-12-01T08:23:42.254Z,101652.59
2022-12-01T08:26:15.226Z,101655.41
2022-12-01T08:28:42.850Z,101654.53
2022-12-01T08:31:22.609Z,101655.00
2022-12-01T08:33:50.717Z,101655.06
2022-12-01T08:36:20.227Z,101647.78
2022-12-01T08:38:49.120Z,101649.91
2022-12-01T08:41:16.231Z,101644.25
2022-12-01T08:44:01.051Z,101650.47
2022-12-01T08:46:31.597Z,101659.81
2022-12-01T08:48:58.583Z,101658.44
2022-12-01T08:51:26.345Z,101649.31
2022-12-01T08:53:55.761Z,101655.75
2022-12-01T08:56:28.414Z,101653.63
2022-12-01T08:58:55.983Z,101645.81
2022-12-01T09:01:23.535Z,101648.59
2022-12-01T09:04:05.453Z,101652.09
2022-12-01T09:06:39.623Z,101652.72
2022-12-01T09:09:08.010Z,101655.66
2022-12-01T09:11:34.744Z,101655.47
2022-12-01T09:14:01.648Z,101651.47
2022-12-01T09:16:28.520Z,101655.69
2022-12-01T09:18:55.798Z,101652.03
2022-12-01T09:21:33.002Z,101656.09
2022-12-01T09:24:01.443Z,101654.28
2022-12-01T09:26:28.632Z,101653.66
2022-12-01T09:29:01.785Z,101655.31
2022-12-01T09:31:28.799Z,101657.22
2022-12-01T09:33:57.807Z,101656.81
2022-12-01T09:36:25.513Z,101658.50
2022-12-01T09:38:52.538Z,101650.50
2022-12-01T09:41:21.114Z,101650.66
2022-12-01T09:44:15.195Z,101655.03
2022-12-01T09:46:52.632Z,101648.78
2022-12-01T09:49:22.999Z,101655.44
2022-12-01T09:51:54.449Z,101652.16
2022-12-01T09:54:21.474Z,101650.31
2022-12-01T09:56:53.346Z,101648.16
2022-12-01T09:59:26.638Z,101651.84
2022-12-01T10:02:01.181Z,101645.00
2022-12-01T10:04:27.989Z,101650.59
2022-12-01T10:07:13.145Z,101637.19
2022-12-01T10:09:49.199Z,101644.78
2022-12-01T10:12:18.945Z,101642.72
2022-12-01T10:14:48.347Z,101642.88
2022-12-01T10:17:20.927Z,101640.88
2022-12-01T10:20:35.159Z,101644.44
2022-12-01T10:23:10.523Z,101645.78
2022-12-01T10:25:55.444Z,101638.34
2022-12-01T10:28:27.905Z,101639.59
2022-12-01T10:31:04.267Z,101642.53
2022-12-01T10:33:39.499Z,101640.53
2022-12-01T10:36:07.289Z,101630.88
2022-12-01T10:38:36.598Z,101632.31
2022-12-01T10:41:06.908Z,101630.31
2022-12-01T10:43:44.690Z,101631.59
2022-12-01T10:46:25.801Z,101630.22
2022-12-01T10:48:58.538Z,101615.59
2022-12-01T10:51:26.915Z,101619.97
2022-12-01T10:54:07.670Z,101614.91
2022-12-01T10:56:35.416Z,101613.09
2022-12-01T10:59:15.804Z,101616.09
2022-12-01T11:01:48.274Z,101611.34
2022-12-01T11:04:45.690Z,101612.09
2022-12-01T11:07:24.691Z,101610.06
2022-12-01T11:10:04.319Z,101611.81
2022-12-01T11:12:32.059Z,101605.53
2022-12-01T11:14:59.268Z,101597.91
2022-12-01T11:17:43.329Z,101604.38
2022-12-01T11:20:30.323Z,101599.59
2022-12-01T11:23:18.716Z,101596.44
2022-12-01T11:25:59.245Z,101591.69
2022-12-01T11:28:26.232Z,101599.25
2022-12-01T11:31:02.712Z,101601.22
2022-12-01T11:33:32.657Z,101599.13
2022-12-01T11:35:59.580Z,101604.31
2022-12-01T11:38:34.739Z,101592.22
2022-12-01T11:41:01.673Z,101596.19
2022-12-01T11:43:37.717Z,101587.31
2022-12-01T11:46:09.813Z,101593.72
2022-12-01T11:48:36.952Z,101583.16
2022-12-01T11:51:29.938Z,101575.78
2022-12-01T11:54:18.165Z,101579.75
2022-12-01T11:56:46.699Z,101570.75
2022-12-01T11:59:15.371Z,101570.00
2022-12-01T12:02:18.521Z,101568.16
2022-12-01T12:05:18.196Z,101556.72
2022-12-01T12:08:05.020Z,101560.13
2022-12-01T12:10:59.591Z,101553.59
2022-12-01T12:13:35.239Z,101553.81
2022-12-01T12:16:26.329Z,101549.81
2022-12-01T12:19:52.489Z,101553.63
2022-12-01T12:22:38.369Z,101543.63
2022-12-01T12:25:16.963Z,101543.53
2022-12-01T12:28:09.317Z,101541.75
2022-12-01T12:31:14.779Z,101541.44
2022-12-01T12:34:14.141Z,101536.44
2022-12-01T12:36:52.061Z,101526.91
2022-12-01T12:39:22.321Z,101526.50
2022-12-01T12:41:54.259Z,101522.88
2022-12-01T12:44:37.545Z,101520.50
2022-12-01T12:47:04.672Z,101520.81
2022-12-01T12:49:40.434Z,101518.63
2022-12-01T12:52:18.125Z,101512.69
2022-12-01T12:55:01.925Z,101512.91
2022-12-01T12:57:44.593Z,101511.34
2022-12-01T13:00:21.460Z,101500.59
2022-12-01T13:03:10.781Z,101500.69
2022-12-01T13:06:10.280Z,101507.88
2022-12-01T13:08:57.444Z,101500.09
2022-12-01T13:11:32.622Z,101503.53
2022-12-01T13:14:07.793Z,101496.44
2022-12-01T13:16:39.891Z,101502.41
2022-12-01T13:19:22.754Z,101504.88
2022-12-01T13:21:52.218Z,101501.66
2022-12-01T13:24:23.547Z,101499.56
2022-12-01T13:26:55.981Z,101505.38
2022-12-01T13:29:25.043Z,101504.31
2022-12-01T13:31:54.454Z,101504.41
2022-12-01T13:34:42.122Z,101503.47
2022-12-01T13:37:12.091Z,101505.38
2022-12-01T13:39:41.568Z,101501.28
2022-12-01T13:42:23.801Z,101508.19
2022-12-01T13:45:02.204Z,101497.38
2022-12-01T13:47:38.031Z,101498.06
2022-12-01T13:50:53.075Z,101495.41
2022-12-01T13:53:19.871Z,101498.13
2022-12-01T13:55:58.035Z,101497.94
2022-12-01T13:58:41.624Z,101509.84
2022-12-01T14:01:21.254Z,101506.31
2022-12-01T14:03:56.929Z,101506.19
2022-12-01T14:06:38.458Z,101509.25
2022-12-01T14:09:14.283Z,101510.56
2022-12-01T14:11:54.403Z,101516.34
2022-12-01T14:14:26.193Z,101518.97
2022-12-01T14:16:58.483Z,101517.03
2022-12-01T14:19:52.138Z,101521.13
2022-12-01T14:22:33.135Z,101519.44
2022-12-01T14:25:00.324Z,101514.88
2022-12-01T14:27:45.338Z,101511.19
2022-12-01T14:30:42.432Z,101520.16
2022-12-01T14:33:40.105Z,101520.78
2022-12-01T14:36:26.423Z,101530.88
2022-12-01T14:39:00.120Z,101525.59
2022-12-01T14:41:39.445Z,101527.19
2022-12-01T14:44:11.553Z,101528.91
2022-12-01T14:46:52.623Z,101528.88
2022-12-01T14:49:28.263Z,101527.81
2022-12-01T14:52:00.724Z,101530.19
2022-12-01T14:54:35.029Z,101529.94
2022-12-01T14:57:07.414Z,101535.06
2022-12-01T14:59:35.220Z,101532.44
2022-12-01T15:02:09.614Z,101539.31
2022-12-01T15:05:06.382Z,101546.75
2022-12-01T15:07:42.528Z,101549.06
2022-12-01T15:10:36.196Z,101555.59
2022-12-01T15:13:24.821Z,101553.75
2022-12-01T15:15:54.940Z,101552.69
2022-12-01T15:18:42.504Z,101560.22
2022-12-01T15:21:17.015Z,101561.78
2022-12-01T15:24:01.972Z,101563.31
2022-12-01T15:26:49.882Z,101568.28
2022-12-01T15:29:31.886Z,101559.50
2022-12-01T15:32:21.043Z,101561.88
2022-12-01T15:34:51.882Z,101559.91
2022-12-01T15:37:24.772Z,101565.69
2022-12-01T15:40:00.298Z,101562.00
2022-12-01T15:42:39.631Z,101564.41
2022-12-01T15:45:12.458Z,101558.19
2022-12-01T15:47:43.533Z,101559.59
2022-12-01T15:50:29.843Z,101565.28
2022-12-01T15:52:58.240Z,101557.47
2022-12-01T15:55:36.296Z,101550.44
2022-12-01T15:58:08.074Z,101554.69
2022-12-01T16:00:35.883Z,101551.06
2022-12-01T16:03:03.337Z,101557.94
2022-12-01T16:05:34.930Z,101550.88
2022-12-01T16:08:20.147Z,101552.53
2022-12-01T16:11:11.852Z,101560.06
2022-12-01T16:13:50.003Z,101546.25
2022-12-01T16:16:23.025Z,101559.75
2022-12-01T16:19:05.992Z,101558.91
2022-12-01T16:21:42.535Z,101556.97
2022-12-01T16:24:15.927Z,101566.94
2022-12-01T16:27:02.733Z,101559.66
2022-12-01T16:29:33.948Z,101555.84
2022-12-01T16:32:20.384Z,101554.47
2022-12-01T16:34:48.990Z,101563.72
2022-12-01T16:37:16.477Z,101565.44
2022-12-01T16:39:43.386Z,101562.31
2022-12-01T16:42:13.046Z,101571.28
2022-12-01T16:44:40.300Z,101571.00
2022-12-01T16:47:16.002Z,101573.63
2022-12-01T16:49:42.885Z,101580.56
2022-12-01T16:54:57.157Z,101578.34
2022-12-01T16:57:24.034Z,101585.00
2022-12-01T16:59:51.019Z,101586.72
2022-12-01T17:02:18.292Z,101586.00
2022-12-01T17:04:45.113Z,101578.63
2022-12-01T17:07:11.912Z,101585.50
2022-12-01T17:09:38.701Z,101586.38
2022-12-01T17:12:05.932Z,101582.88
2022-12-01T17:14:32.834Z,101592.06
2022-12-01T17:16:59.558Z,101591.91
2022-12-01T17:19:26.462Z,101596.00
2022-12-01T17:21:53.323Z,101587.53
2022-12-01T17:24:20.141Z,101586.59
2022-12-01T17:26:46.830Z,101589.03
2022-12-01T17:29:13.674Z,101589.88
2022-12-01T17:31:40.474Z,101593.47
2022-12-01T17:34:07.374Z,101588.19
2022-12-01T17:36:34.604Z,101596.34
2022-12-01T17:39:01.473Z,101596.84
2022-12-01T17:41:32.548Z,101598.97
2022-12-01T17:44:02.648Z,101587.22
2022-12-01T17:46:30.263Z,101600.53
2022-12-01T17:48:57.482Z,101601.47
2022-12-01T17:51:24.395Z,101597.19
2022-12-01T17:53:52.704Z,101594.94
2022-12-01T17:56:19.447Z,101601.31
2022-12-01T17:58:46.293Z,101609.47
2022-12-01T18:01:19.176Z,101608.03
2022-12-01T18:03:47.821Z,101606.94
2022-12-01T18:06:15.669Z,101609.00
2022-12-01T18:08:43.262Z,101613.78
2022-12-01T18:11:14.115Z,101614.56
2022-12-01T18:13:43.959Z,101622.22
2022-12-01T18:16:22.529Z,101617.34
2022-12-01T18:18:50.047Z,101616.63
2022-12-01T18:21:19.463Z,101621.06
2022-12-01T18:23:54.793Z,101625.84
2022-12-01T18:26:22.957Z,101637.59
2022-12-01T18:28:55.302Z,101631.78
2022-12-01T18:31:22.421Z,101628.38
2022-12-01T18:33:49.287Z,101632.81
2022-12-01T18:36:19.012Z,101639.19
2022-12-01T18:38:49.177Z,101637.41
2022-12-01T18:41:19.258Z,101641.19
2022-12-01T18:43:47.314Z,101633.25
2022-12-01T18:46:15.892Z,101642.16
2022-12-01T18:48:51.168Z,101642.81
2022-12-01T18:51:19.191Z,101641.53
2022-12-01T18:53:45.988Z,101644.06
2022-12-01T18:56:15.212Z,101643.84
2022-12-01T18:58:42.929Z,101645.78
2022-12-01T19:01:22.156Z,101650.28
2022-12-01T19:03:49.258Z,101651.47
2022-12-01T19:06:16.973Z,101656.00
2022-12-01T19:08:46.750Z,101658.09
2022-12-01T19:11:13.862Z,101657.75
2022-12-01T19:13:41.949Z,101662.59
2022-12-01T19:16:14.193Z,101666.72
2022-12-01T19:18:41.541Z,101667.78
2022-12-01T19:21:10.464Z,101671.59
2022-12-01T19:23:37.682Z,101666.69
2022-12-01T19:26:10.839Z,101661.47
2022-12-01T19:28:38.681Z,101667.75
2022-12-01T19:31:11.236Z,101669.09
2022-12-01T19:33:38.675Z,101677.41
2022-12-01T19:36:14.759Z,101675.88
2022-12-01T19:38:44.606Z,101675.81
2022-12-01T19:41:13.413Z,101680.38
2022-12-01T19:43:42.350Z,101677.53
2022-12-01T19:46:11.996Z,101680.88
2022-12-01T19:48:38.973Z,101672.13
2022-12-01T19:51:06.555Z,101684.47
2022-12-01T19:53:34.208Z,101684.22
2022-12-01T19:56:03.120Z,101691.38
2022-12-01T19:58:33.203Z,101694.75
2022-12-01T20:01:09.071Z,101692.50
2022-12-01T20:03:38.037Z,101694.88
2022-12-01T20:06:07.704Z,101696.84
2022-12-01T20:08:36.137Z,101708.38
2022-12-01T20:11:04.409Z,101699.72
2022-12-01T20:13:33.130Z,101704.88
2022-12-01T20:16:14.668Z,101703.25
2022-12-01T20:18:42.215Z,101705.38
2022-12-01T20:21:20.578Z,101704.06
2022-12-01T20:24:10.254Z,101703.19
2022-12-01T20:26:40.526Z,101699.44
2022-12-01T20:29:11.903Z,101701.53
2022-12-01T20:31:39.943Z,101700.69
2022-12-01T20:34:16.931Z,101699.81
2022-12-01T20:36:44.898Z,101696.28
2022-12-01T20:39:12.859Z,101706.31
2022-12-01T20:41:44.014Z,101703.25
2022-12-01T20:44:12.999Z,101704.63
2022-12-01T20:46:41.723Z,101704.50
2022-12-01T20:49:09.737Z,101712.63
2022-12-01T20:51:36.579Z,101714.03
2022-12-01T20:54:27.341Z,101711.44
2022-12-01T20:56:53.246Z,101716.13
2022-12-01T20:59:20.578Z,101715.81
2022-12-01T21:01:48.396Z,101713.16
2022-12-01T21:04:15.408Z,101713.66
2022-12-01T21:06:42.404Z,101712.38
2022-12-01T21:09:09.753Z,101716.50
2022-12-01T21:12:05.614Z,101717.78
2022-12-01T21:14:37.569Z,101710.94
2022-12-01T21:17:19.056Z,101716.31
2022-12-01T21:19:57.273Z,101715.63
2022-12-01T21:22:25.651Z,101715.69
2022-12-01T21:25:02.763Z,101716.88
2022-12-01T21:27:29.942Z,101723.75
2022-12-01T21:29:57.062Z,101720.94
2022-12-01T21:32:33.377Z,101717.59
2022-12-01T21:35:14.841Z,101721.81
2022-12-01T21:37:41.668Z,101723.16
2022-12-01T21:40:29.026Z,101724.78
2022-12-01T21:42:58.792Z,101724.69
2022-12-01T21:45:32.151Z,101733.31
2022-12-01T21:48:16.047Z,101738.97
2022-12-01T21:50:42.973Z,101733.41
2022-12-01T21:53:20.457Z,101734.59
2022-12-01T21:55:47.821Z,101731.81
2022-12-01T21:58:29.864Z,101730.28
2022-12-01T22:00:59.069Z,101730.38
2022-12-01T22:03:31.079Z,101738.69
2022-12-01T22:09:01.011Z,101738.59
2022-12-01T22:11:29.112Z,101741.91
2022-12-01T22:14:16.772Z,101738.75
2022-12-01T22:16:51.683Z,101743.06
2022-12-01T22:19:26.748Z,101739.16
2022-12-01T22:22:02.392Z,101742.69
2022-12-01T22:24:44.356Z,101738.19
2022-12-01T22:27:32.854Z,101737.63
2022-12-01T22:30:18.519Z,101746.16
2022-12-01T22:32:51.276Z,101750.75
2022-12-01T22:35:21.247Z,101748.44
2022-12-01T22:38:00.038Z,101747.94
2022-12-01T22:40:51.438Z,101748.25
2022-12-01T22:43:18.219Z,101751.84
2022-12-01T22:45:49.119Z,101747.56
2022-12-01T22:48:21.882Z,101742.47
2022-12-01T22:50:51.719Z,101742.88
2022-12-01T22:53:29.225Z,101741.91
2022-12-01T22:56:00.084Z,101739.34
2022-12-01T22:58:41.221Z,101750.00
2022-12-01T23:01:19.707Z,101746.97
2022-12-01T23:03:46.579Z,101751.84
2022-12-01T23:06:49.255Z,101750.06
2022-12-01T23:09:16.180Z,101746.06
2022-12-01T23:11:44.232Z,101754.56
2022-12-01T23:14:18.839Z,101749.91
2022-12-01T23:16:45.621Z,101753.19
2022-12-01T23:19:12.354Z,101746.97
2022-12-01T23:21:39.339Z,101744.81
2022-12-01T23:24:06.833Z,101744.31
2022-12-01T23:26:33.778Z,101745.78
2022-12-01T23:29:01.461Z,101741.31
2022-12-01T23:31:29.303Z,101737.41
2022-12-01T23:33:56.078Z,101739.81
2022-12-01T23:36:28.654Z,101741.31
2022-12-01T23:39:02.612Z,101737.19
2022-12-01T23:41:48.738Z,101737.69
2022-12-01T23:44:24.592Z,101734.56
2022-12-01T23:46:53.848Z,101733.78
2022-12-01T23:49:24.200Z,101735.72
2022-12-01T23:51:53.867Z,101736.09
2022-12-01T23:54:41.052Z,101741.94
2022-12-01T23:57:21.449Z,101735.22
2022-12-01T23:59:54.541Z,101736.41
